Time;durP1;ratioP1;P1;durP2;ratioP2;P2;SDS_P1;SDS_P2;PMS_P1;PMS_P2;Temp;Humidity;BMP_temperature;BMP_pressure;BME280_temperature;BME280_humidity;BME280_pressure;Samples;Min_cycle;Max_cycle;Signal;HPM_P1;HPM_P2
2022/12/23 00:01:45;;;;;;;3.65;2.33;;;18.30;1.00;;;;;;5060049;28;20116;-38
2022/12/23 00:04:12;;;;;;;3.92;2.47;;;18.20;1.00;;;;;;5067520;28;20045;-39
2022/12/23 00:06:39;;;;;;;4.47;2.33;;;18.20;1.00;;;;;;5071962;28;20048;-39
2022/12/23 00:09:05;;;;;;;3.83;2.50;;;18.20;1.00;;;;;;5071790;28;20044;-39
2022/12/23 00:11:32;;;;;;;3.65;2.42;;;18.20;1.00;;;;;;5071703;28;20542;-39
2022/12/23 00:16:49;;;;;;;3.40;2.67;;;18.10;1.00;;;;;;5071724;28;20044;-38
2022/12/23 00:19:16;;;;;;;4.63;1.98;;;18.10;1.00;;;;;;5071674;28;20041;-39
2022/12/23 00:21:43;;;;;;;4.75;2.65;;;18.00;1.00;;;;;;5071642;28;20040;-38
2022/12/23 00:24:10;;;;;;;4.20;2.22;;;18.00;1.00;;;;;;5071282;28;20045;-39
2022/12/23 00:26:38;;;;;;;3.65;2.17;;;18.00;1.00;;;;;;5071572;28;20048;-39
2022/12/23 00:29:05;;;;;;;3.35;2.28;;;18.00;1.00;;;;;;5071851;28;20072;-38
2022/12/23 00:31:32;;;;;;;4.80;2.15;;;18.00;1.00;;;;;;5071486;28;20052;-39
2022/12/23 00:33:59;;;;;;;5.10;2.28;;;18.00;1.00;;;;;;5071330;28;20041;-38
2022/12/23 00:36:29;;;;;;;3.42;2.35;;;17.90;1.00;;;;;;5071465;28;20040;-39
2022/12/23 00:44:29;;;;;;;2.75;1.90;;;17.90;1.00;;;;;;5071243;28;20416;-39
2022/12/23 00:46:56;;;;;;;4.13;2.60;;;17.80;1.00;;;;;;5071464;28;20068;-39
2022/12/23 00:49:41;;;;;;;3.70;2.30;;;17.80;1.00;;;;;;5053410;28;20055;-38
2022/12/23 00:52:12;;;;;;;3.88;2.42;;;17.80;1.00;;;;;;5071272;28;20045;-39
2022/12/23 00:54:39;;;;;;;3.72;2.50;;;17.80;1.00;;;;;;5071253;28;20044;-39
2022/12/23 00:57:06;;;;;;;3.40;2.58;;;17.70;1.00;;;;;;5071292;28;20047;-39
2022/12/23 00:59:33;;;;;;;3.78;2.13;;;17.70;1.00;;;;;;5071302;28;20115;-38
2022/12/23 01:07:30;;;;;;;3.50;2.42;;;17.60;1.00;;;;;;5071478;28;20068;-39
2022/12/23 01:09:57;;;;;;;4.82;2.75;;;17.60;1.00;;;;;;5071209;28;20036;-39
2022/12/23 01:12:24;;;;;;;4.70;2.90;;;17.60;1.00;;;;;;5070973;28;20044;-39
2022/12/23 01:14:50;;;;;;;3.45;2.28;;;17.60;1.00;;;;;;5071685;28;20040;-39
2022/12/23 01:17:17;;;;;;;3.65;2.55;;;17.60;1.00;;;;;;5074958;28;20446;-39
2022/12/23 01:19:44;;;;;;;4.15;2.63;;;17.60;1.00;;;;;;5074833;28;20385;-39
2022/12/23 01:22:11;;;;;;;3.78;2.40;;;17.50;1.00;;;;;;5074649;28;20115;-39
2022/12/23 01:24:37;;;;;;;4.20;2.78;;;17.50;1.00;;;;;;5074356;28;20075;-38
2022/12/23 01:27:04;;;;;;;3.05;2.00;;;17.50;1.00;;;;;;5074655;28;20063;-38
2022/12/23 01:29:31;;;;;;;4.03;2.53;;;17.50;1.00;;;;;;5074624;28;20495;-39
2022/12/23 01:31:58;;;;;;;4.00;2.33;;;17.50;1.00;;;;;;5074551;28;20474;-38
2022/12/23 01:34:25;;;;;;;4.28;3.00;;;17.40;1.00;;;;;;5074449;28;20055;-38
2022/12/23 01:37:00;;;;;;;5.32;3.10;;;17.40;1.00;;;;;;5056705;28;20045;-38
2022/12/23 01:39:26;;;;;;;5.20;2.67;;;17.40;1.00;;;;;;5074375;28;20041;-38
2022/12/23 01:44:49;;;;;;;5.15;2.67;;;17.40;1.00;;;;;;5070788;28;20036;-38
2022/12/23 01:47:19;;;;;;;4.35;2.40;;;17.40;1.00;;;;;;5054478;28;20442;-38
2022/12/23 01:49:49;;;;;;;5.20;2.75;;;17.30;1.00;;;;;;5054209;28;20061;-39
2022/12/23 01:52:16;;;;;;;5.15;2.53;;;17.30;1.00;;;;;;5054173;28;20063;-38
2022/12/23 01:54:43;;;;;;;5.05;2.67;;;17.30;1.00;;;;;;5054029;28;20123;-39
2022/12/23 01:57:11;;;;;;;5.20;2.25;;;17.30;1.00;;;;;;5054040;28;20048;-39
2022/12/23 02:05:11;;;;;;;3.88;2.30;;;17.30;1.00;;;;;;5054155;28;20041;-38
2022/12/23 02:10:31;;;;;;;4.22;2.72;;;17.20;1.00;;;;;;5053792;28;20119;-38
2022/12/23 02:13:31;;;;;;;3.92;2.60;;;17.20;1.00;;;;;;5053443;28;20037;-38
2022/12/23 02:16:16;;;;;;;3.72;2.25;;;17.20;1.00;;;;;;5053841;28;20045;-38
2022/12/23 02:18:59;;;;;;;4.28;2.42;;;17.20;1.00;;;;;;5053746;28;20121;-38
2022/12/23 02:21:55;;;;;;;4.28;2.50;;;17.10;1.00;;;;;;5053757;28;20037;-38
2022/12/23 02:24:37;;;;;;;4.93;2.47;;;17.10;1.00;;;;;;5053478;28;20040;-39
2022/12/23 02:27:13;;;;;;;6.38;2.72;;;17.10;1.00;;;;;;5052650;28;20448;-39
2022/12/23 02:30:00;;;;;;;4.07;2.28;;;17.10;1.00;;;;;;5053575;28;20045;-38
2022/12/23 02:32:45;;;;;;;3.53;2.28;;;17.10;1.00;;;;;;5053166;28;20086;-38
2022/12/23 02:35:30;;;;;;;4.80;2.63;;;17.10;1.00;;;;;;5053361;28;20040;-38
2022/12/23 02:38:13;;;;;;;3.97;2.35;;;17.00;1.00;;;;;;5053282;28;20136;-38
2022/12/23 02:40:54;;;;;;;3.78;2.28;;;17.00;1.00;;;;;;5053322;28;20045;-38
2022/12/23 02:43:36;;;;;;;3.03;2.10;;;17.00;1.00;;;;;;5052983;28;20041;-38
2022/12/23 02:46:12;;;;;;;3.92;2.15;;;17.00;1.00;;;;;;5053214;28;20059;-38
2022/12/23 02:49:06;;;;;;;3.83;2.17;;;17.00;1.00;;;;;;5053114;28;20068;-38
2022/12/23 02:51:38;;;;;;;3.13;1.83;;;17.00;1.00;;;;;;5053134;28;20044;-38
2022/12/23 02:54:09;;;;;;;3.75;2.40;;;16.90;1.00;;;;;;5052610;28;20044;-38
2022/12/23 02:56:41;;;;;;;5.07;2.67;;;16.90;1.00;;;;;;5053202;28;20049;-38
2022/12/23 02:59:16;;;;;;;5.07;2.63;;;16.90;1.00;;;;;;5052982;28;20060;-38
2022/12/23 03:01:44;;;;;;;3.90;2.22;;;16.90;1.00;;;;;;5035211;28;20072;-38
2022/12/23 03:04:11;;;;;;;3.85;2.30;;;16.90;1.00;;;;;;5052511;28;20052;-38
2022/12/23 03:06:43;;;;;;;3.33;2.13;;;16.90;1.00;;;;;;5052763;28;20068;-39
2022/12/23 03:09:44;;;;;;;4.18;2.25;;;16.90;1.00;;;;;;5052744;28;20116;-38
2022/12/23 03:12:23;;;;;;;3.40;2.08;;;16.80;1.00;;;;;;5035812;28;20065;-39
2022/12/23 03:15:45;;;;;;;4.05;2.40;;;16.80;1.00;;;;;;5052527;28;20068;-39
2022/12/23 03:18:25;;;;;;;3.97;2.40;;;16.80;1.00;;;;;;4996041;28;20053;-39
2022/12/23 03:21:19;;;;;;;3.40;2.08;;;16.80;1.00;;;;;;5052600;28;20080;-39
2022/12/23 03:24:23;;;;;;;7.28;2.53;;;16.80;1.00;;;;;;5042015;28;20095;-39
2022/12/23 03:27:08;;;;;;;;;;;16.80;1.00;;;;;;5052965;28;20067;-39
2022/12/23 03:30:00;;;;;;;5.97;2.63;;;16.70;1.00;;;;;;5051570;28;19989;-38
2022/12/23 03:32:32;;;;;;;4.13;2.25;;;16.70;1.00;;;;;;5051633;28;20086;-38
2022/12/23 03:35:01;;;;;;;5.10;2.83;;;16.70;1.00;;;;;;5054551;28;20128;-38
2022/12/23 03:37:31;;;;;;;3.65;2.22;;;16.70;1.00;;;;;;5067769;28;20433;-39
2022/12/23 03:40:05;;;;;;;4.28;2.70;;;16.70;1.00;;;;;;5060473;28;20048;-39
2022/12/23 03:42:36;;;;;;;2.88;2.10;;;16.70;1.00;;;;;;5045809;28;20472;-39
2022/12/23 03:45:15;;;;;;;4.40;2.03;;;16.60;1.00;;;;;;5070954;28;20381;-39
2022/12/23 03:48:08;;;;;;;4.95;3.40;;;16.60;1.00;;;;;;5063356;28;20045;-39
2022/12/23 03:50:36;;;;;;;4.07;2.65;;;16.60;1.00;;;;;;5071952;28;20044;-39
2022/12/23 03:53:12;;;;;;;4.63;2.97;;;16.60;1.00;;;;;;5071624;28;20045;-39
2022/12/23 03:55:47;;;;;;;4.53;2.42;;;16.60;1.00;;;;;;5071875;28;20132;-39
2022/12/23 03:58:24;;;;;;;3.70;2.38;;;16.60;1.00;;;;;;5071977;28;20040;-38
2022/12/23 04:01:16;;;;;;;4.15;2.92;;;16.60;1.00;;;;;;5071819;28;20044;-39
2022/12/23 04:03:57;;;;;;;4.33;2.30;;;16.60;1.00;;;;;;5071605;28;20048;-39
2022/12/23 04:06:27;;;;;;;5.22;2.95;;;16.60;1.00;;;;;;5071907;28;20277;-39
2022/12/23 04:08:56;;;;;;;4.55;2.65;;;16.60;1.00;;;;;;5071757;28;20116;-39
2022/12/23 04:11:23;;;;;;;4.53;2.50;;;16.50;1.00;;;;;;5071763;28;20075;-39
2022/12/23 04:13:52;;;;;;;4.63;2.97;;;16.50;1.00;;;;;;5053266;28;20037;-39
2022/12/23 04:16:18;;;;;;;4.53;2.60;;;16.50;1.00;;;;;;5071720;28;20045;-39
2022/12/23 04:18:45;;;;;;;5.93;2.40;;;16.50;1.00;;;;;;5071767;28;20051;-39
2022/12/23 04:21:12;;;;;;;3.20;2.20;;;16.50;1.00;;;;;;5071773;28;20492;-39
2022/12/23 04:23:39;;;;;;;4.22;2.45;;;16.50;1.00;;;;;;5071293;28;20048;-39
2022/12/23 04:26:06;;;;;;;3.75;2.45;;;16.50;1.00;;;;;;5071517;28;20500;-38
2022/12/23 04:28:32;;;;;;;4.65;2.42;;;16.50;1.00;;;;;;5071699;28;20488;-39
2022/12/23 04:30:59;;;;;;;3.42;1.92;;;16.50;1.00;;;;;;5071503;28;20048;-39
2022/12/23 04:33:26;;;;;;;4.25;2.58;;;16.50;1.00;;;;;;5071135;28;20082;-39
2022/12/23 04:35:53;;;;;;;4.47;2.65;;;16.40;1.00;;;;;;5071536;28;20036;-39
2022/12/23 04:38:19;;;;;;;5.78;2.90;;;16.40;1.00;;;;;;5071494;28;20037;-39
2022/12/23 04:40:46;;;;;;;3.92;2.58;;;16.40;1.00;;;;;;5071383;28;20040;-39
2022/12/23 04:43:13;;;;;;;4.25;2.65;;;16.40;1.00;;;;;;5071245;28;20047;-39
2022/12/23 04:45:40;;;;;;;4.20;2.88;;;16.40;1.00;;;;;;5071523;28;20083;-39
2022/12/23 04:48:08;;;;;;;3.92;2.30;;;16.40;1.00;;;;;;5071540;28;20044;-38
2022/12/23 04:50:34;;;;;;;4.20;2.35;;;16.40;1.00;;;;;;5073273;28;20044;-39
2022/12/23 04:53:01;;;;;;;4.40;2.22;;;16.40;1.00;;;;;;5074908;28;20446;-39
2022/12/23 04:55:28;;;;;;;3.80;2.40;;;16.40;1.00;;;;;;5075055;28;20045;-39
2022/12/23 04:57:54;;;;;;;3.65;2.20;;;16.40;1.00;;;;;;5075372;28;20519;-38
2022/12/23 05:00:21;;;;;;;4.00;2.22;;;16.40;1.00;;;;;;5075173;28;20426;-39
2022/12/23 05:02:48;;;;;;;4.40;1.95;;;16.30;1.00;;;;;;5074798;28;20051;-39
2022/12/23 05:05:15;;;;;;;5.32;2.25;;;16.30;1.00;;;;;;5075000;28;20048;-38
2022/12/23 05:07:41;;;;;;;4.57;1.80;;;16.30;1.00;;;;;;5075179;28;20051;-38
2022/12/23 05:10:09;;;;;;;4.70;2.70;;;16.30;1.00;;;;;;5056968;28;20131;-38
2022/12/23 05:12:36;;;;;;;4.65;2.00;;;16.30;1.00;;;;;;5074811;28;20048;-39
2022/12/23 05:15:03;;;;;;;3.42;1.77;;;16.30;1.00;;;;;;5082499;22;20538;-37
2022/12/23 05:17:29;;;;;;;4.47;2.30;;;16.30;1.00;;;;;;5072910;28;20285;-37
2022/12/23 05:19:56;;;;;;;6.15;2.60;;;16.30;1.00;;;;;;5081166;28;20045;-37
2022/12/23 05:22:23;;;;;;;4.00;2.00;;;16.20;1.00;;;;;;5093363;28;20048;-37
2022/12/23 05:24:50;;;;;;;7.53;2.28;;;16.20;1.00;;;;;;5094786;28;20043;-37
2022/12/23 05:27:17;;;;;;;3.22;1.88;;;16.20;1.00;;;;;;5095062;28;20044;-37
2022/12/23 05:29:43;;;;;;;9.25;3.78;;;16.20;1.00;;;;;;5095109;28;20487;-37
2022/12/23 05:32:10;;;;;;;9.60;3.10;;;16.20;1.00;;;;;;5077214;28;20041;-37
2022/12/23 05:34:37;;;;;;;7.13;2.97;;;16.20;1.00;;;;;;5074094;28;20048;-37
2022/12/23 05:37:03;;;;;;;12.35;3.17;;;16.20;1.00;;;;;;5074502;28;20123;-37
2022/12/23 05:39:30;;;;;;;6.38;2.72;;;16.10;1.00;;;;;;5074429;28;20040;-37
2022/12/23 05:41:57;;;;;;;8.48;3.38;;;16.10;1.00;;;;;;5074500;28;20090;-37
2022/12/23 05:44:24;;;;;;;11.05;3.83;;;16.10;1.00;;;;;;5074082;28;20052;-37
2022/12/23 05:46:50;;;;;;;7.18;3.20;;;16.10;1.00;;;;;;5074336;28;20492;-37
2022/12/23 05:49:17;;;;;;;5.72;3.05;;;16.10;1.00;;;;;;5074259;28;20697;-37
2022/12/23 05:51:44;;;;;;;7.82;3.28;;;16.10;1.00;;;;;;5074203;28;20460;-37
2022/12/23 05:54:10;;;;;;;4.85;2.63;;;16.10;1.00;;;;;;5073925;28;20037;-37
2022/12/23 05:56:37;;;;;;;4.60;2.70;;;16.10;1.00;;;;;;5074291;28;20040;-37
2022/12/23 05:59:04;;;;;;;8.90;3.95;;;16.00;1.00;;;;;;5074169;28;20037;-37
2022/12/23 06:01:31;;;;;;;4.60;2.83;;;16.00;1.00;;;;;;5072089;28;20068;-37
2022/12/23 06:03:58;;;;;;;5.32;2.50;;;16.00;1.00;;;;;;5080361;28;20042;-37
2022/12/23 06:06:25;;;;;;;4.80;2.30;;;16.00;1.00;;;;;;5071557;28;20040;-38
2022/12/23 06:08:52;;;;;;;6.72;2.63;;;16.00;1.00;;;;;;5078189;28;20043;-37
2022/12/23 06:11:25;;;;;;;;;;;16.00;1.00;;;;;;5086114;28;20087;-38
2022/12/23 06:13:51;;;;;;;6.82;2.72;;;16.00;1.00;;;;;;5093403;28;19960;-37
2022/12/23 06:16:18;;;;;;;3.80;1.98;;;16.00;1.00;;;;;;5092927;28;20036;-37
2022/12/23 06:18:45;;;;;;;6.72;2.88;;;16.00;1.00;;;;;;5075010;28;20076;-37
2022/12/23 06:21:12;;;;;;;5.60;2.95;;;16.00;1.00;;;;;;5093076;28;20044;-37
2022/12/23 06:23:39;;;;;;;4.18;2.05;;;16.00;1.00;;;;;;5092601;28;20386;-37
2022/12/23 06:26:05;;;;;;;5.57;2.33;;;16.00;1.00;;;;;;5092853;28;20040;-37
2022/12/23 06:28:32;;;;;;;4.60;2.55;;;16.00;1.00;;;;;;5092860;28;20251;-37
2022/12/23 06:30:59;;;;;;;5.40;2.28;;;16.00;1.00;;;;;;5092684;28;20054;-37
2022/12/23 06:33:25;;;;;;;6.32;2.30;;;15.90;1.00;;;;;;5092312;28;20040;-37
2022/12/23 06:35:56;;;;;;;3.38;1.83;;;16.00;1.00;;;;;;5092808;28;20078;-38
2022/12/23 06:38:26;;;;;;;3.25;1.83;;;15.90;1.00;;;;;;5092675;28;20051;-37
2022/12/23 06:40:59;;;;;;;3.85;1.80;;;15.90;1.00;;;;;;5074692;28;20036;-37
2022/12/23 06:43:29;;;;;;;3.67;2.05;;;15.90;1.00;;;;;;5092258;28;20089;-37
2022/12/23 06:45:55;;;;;;;2.97;1.63;;;15.90;1.00;;;;;;5092604;28;20040;-37
2022/12/23 06:48:22;;;;;;;4.60;1.50;;;15.90;1.00;;;;;;5092491;28;20048;-37
2022/12/23 06:50:49;;;;;;;4.30;2.05;;;15.90;1.00;;;;;;5092364;28;20529;-37
2022/12/23 06:53:16;;;;;;;2.72;1.60;;;15.90;1.00;;;;;;5092119;28;20050;-37
2022/12/23 06:55:42;;;;;;;4.65;2.05;;;15.90;1.00;;;;;;5092386;28;20123;-38
2022/12/23 06:58:09;;;;;;;3.20;1.77;;;15.90;1.00;;;;;;5092431;28;20036;-37
2022/12/23 07:00:36;;;;;;;9.68;2.17;;;15.90;1.00;;;;;;5092528;28;20040;-37
2022/12/23 07:03:03;;;;;;;4.70;1.95;;;15.80;1.00;;;;;;5092022;28;20039;-37
2022/12/23 07:05:29;;;;;;;3.35;1.25;;;15.80;1.00;;;;;;5092254;28;20044;-37
2022/12/23 07:08:02;;;;;;;3.40;1.58;;;15.80;1.00;;;;;;5092399;28;20055;-38
2022/12/23 07:10:29;;;;;;;3.88;2.10;;;15.80;1.00;;;;;;5092545;28;20036;-37
2022/12/23 07:12:56;;;;;;;4.28;1.65;;;15.80;1.00;;;;;;5092934;28;20051;-37
2022/12/23 07:15:23;;;;;;;6.80;2.13;;;15.80;1.00;;;;;;5056795;28;1079890;-38
2022/12/23 07:17:49;;;;;;;2.47;1.38;;;15.80;1.00;;;;;;5093313;28;20075;-37
2022/12/23 07:20:16;;;;;;;4.88;2.47;;;15.80;1.00;;;;;;5092819;28;20046;-37
2022/12/23 07:22:43;;;;;;;3.60;1.88;;;15.80;1.00;;;;;;5092572;28;20094;-37
2022/12/23 07:25:10;;;;;;;4.38;2.35;;;15.80;1.00;;;;;;5092574;28;20479;-37
2022/12/23 07:27:37;;;;;;;2.80;1.40;;;15.80;1.00;;;;;;5092860;28;20044;-37
2022/12/23 07:30:04;;;;;;;3.45;1.95;;;15.80;1.00;;;;;;5092669;28;20040;-38
2022/12/23 07:32:31;;;;;;;3.10;1.40;;;15.80;1.00;;;;;;5092651;28;20116;-37
2022/12/23 07:34:58;;;;;;;3.33;1.60;;;15.80;1.00;;;;;;5092324;28;20069;-37
2022/12/23 07:37:24;;;;;;;4.00;1.92;;;15.80;1.00;;;;;;5092478;28;20036;-37
2022/12/23 07:39:51;;;;;;;3.78;1.95;;;15.70;1.00;;;;;;5092538;28;20040;-37
2022/12/23 07:42:18;;;;;;;3.83;1.77;;;15.70;1.00;;;;;;5092241;28;20067;-37
2022/12/23 07:45:05;;;;;;;3.67;1.13;;;15.70;1.00;;;;;;5092330;28;20131;-37
2022/12/23 07:47:32;;;;;;;3.80;1.63;;;15.70;1.00;;;;;;5092252;28;20450;-37
2022/12/23 07:49:59;;;;;;;5.65;2.47;;;15.70;1.00;;;;;;5092410;28;20553;-37
2022/12/23 07:52:27;;;;;;;5.82;1.70;;;15.70;1.00;;;;;;5073966;28;20131;-37
2022/12/23 07:54:53;;;;;;;5.57;2.00;;;15.70;1.00;;;;;;5092066;28;20037;-38
2022/12/23 07:57:20;;;;;;;2.25;1.20;;;15.70;1.00;;;;;;5092135;28;20043;-37
2022/12/23 07:59:47;;;;;;;2.65;1.13;;;15.70;1.00;;;;;;5074013;28;20055;-37
2022/12/23 08:02:14;;;;;;;2.70;1.40;;;15.70;1.00;;;;;;5092008;28;20094;-37
2022/12/23 08:04:41;;;;;;;3.60;1.38;;;15.70;1.00;;;;;;5091859;28;20047;-37
2022/12/23 08:07:12;;;;;;;3.20;1.70;;;15.60;1.00;;;;;;5092004;28;20048;-37
2022/12/23 08:09:39;;;;;;;4.65;1.98;;;15.60;1.00;;;;;;5091924;28;20048;-37
2022/12/23 08:12:06;;;;;;;5.97;1.30;;;15.60;1.00;;;;;;5073789;28;20043;-37
2022/12/23 08:14:32;;;;;;;3.88;1.60;;;15.60;1.00;;;;;;5091606;28;20111;-37
2022/12/23 08:16:59;;;;;;;5.97;2.22;;;15.60;1.00;;;;;;5087728;28;20047;-37
2022/12/23 08:19:26;;;;;;;4.30;1.75;;;15.60;1.00;;;;;;5086474;28;20046;-37
2022/12/23 08:21:52;;;;;;;3.92;1.50;;;15.60;1.00;;;;;;5084757;28;20572;-38
2022/12/23 08:24:19;;;;;;;3.97;1.63;;;15.60;1.00;;;;;;5084994;28;20105;-36
2022/12/23 08:26:46;;;;;;;3.67;1.67;;;15.60;1.00;;;;;;5089716;28;20040;-36
2022/12/23 08:29:13;;;;;;;4.18;1.85;;;15.60;1.00;;;;;;5095951;28;20048;-36
2022/12/23 08:31:40;;;;;;;3.15;1.25;;;15.60;1.00;;;;;;5095827;28;20051;-36
2022/12/23 08:34:06;;;;;;;4.90;1.83;;;15.60;1.00;;;;;;5095375;28;20512;-36
2022/12/23 08:36:34;;;;;;;3.08;1.20;;;15.60;1.00;;;;;;5096031;28;20048;-36
2022/12/23 08:39:05;;;;;;;2.75;1.50;;;15.60;1.00;;;;;;5095760;28;20111;-36
2022/12/23 08:41:36;;;;;;;5.03;1.42;;;15.60;1.00;;;;;;5095851;28;20066;-37
2022/12/23 08:44:03;;;;;;;4.03;1.20;;;15.60;1.00;;;;;;5095316;28;20040;-37
2022/12/23 08:46:30;;;;;;;3.80;1.42;;;15.60;1.00;;;;;;5077575;28;20051;-37
2022/12/23 08:48:57;;;;;;;3.05;1.23;;;15.60;1.00;;;;;;5095647;28;20105;-40
2022/12/23 08:51:25;;;;;;;3.00;1.50;;;15.60;1.00;;;;;;5095637;28;20043;-37
2022/12/23 08:53:57;;;;;;;4.45;1.67;;;15.50;1.00;;;;;;5095099;28;20047;-37
2022/12/23 08:56:38;;;;;;;3.50;1.90;;;15.60;1.00;;;;;;5095471;28;20510;-37
2022/12/23 08:59:05;;;;;;;4.63;1.15;;;15.60;1.00;;;;;;5095309;28;20043;-37
2022/12/23 09:01:33;;;;;;;2.67;1.27;;;15.50;1.00;;;;;;5095390;28;20040;-37
2022/12/23 09:04:04;;;;;;;2.88;1.40;;;15.50;1.00;;;;;;5094956;28;20407;-36
2022/12/23 09:06:35;;;;;;;2.10;1.15;;;15.50;1.00;;;;;;5095427;28;20051;-37
2022/12/23 09:09:03;;;;;;;4.00;1.20;;;15.50;1.00;;;;;;5095169;28;20119;-37
2022/12/23 09:11:30;;;;;;;3.03;1.02;;;15.50;1.00;;;;;;5095128;28;20576;-37
2022/12/23 09:13:59;;;;;;;7.72;1.58;;;15.50;1.00;;;;;;5094547;28;20487;-37
2022/12/23 09:16:26;;;;;;;3.55;1.02;;;15.50;1.00;;;;;;5095146;28;20115;-36
2022/12/23 09:18:53;;;;;;;3.92;1.33;;;15.50;1.00;;;;;;5094940;28;20110;-37
2022/12/23 09:21:22;;;;;;;2.83;1.40;;;15.50;1.00;;;;;;5095119;28;20051;-37
2022/12/23 09:23:49;;;;;;;2.70;1.10;;;15.50;1.00;;;;;;5094502;28;20138;-37
2022/12/23 09:26:22;;;;;;;2.33;1.33;;;15.50;1.00;;;;;;5095049;28;20533;-37
2022/12/23 09:28:49;;;;;;;3.33;1.63;;;15.50;1.00;;;;;;5094897;28;20043;-37
2022/12/23 09:31:17;;;;;;;3.78;1.25;;;15.50;1.00;;;;;;5094822;28;20051;-36
2022/12/23 09:33:48;;;;;;;2.50;1.48;;;15.50;1.00;;;;;;5094316;28;20040;-37
2022/12/23 09:36:16;;;;;;;2.45;1.40;;;15.40;1.00;;;;;;5094431;28;20046;-36
2022/12/23 09:38:43;;;;;;;2.65;1.25;;;15.50;1.00;;;;;;5094640;28;20032;-36
2022/12/23 09:41:41;;;;;;;2.05;1.35;;;15.40;1.00;;;;;;5094611;28;20055;-37
2022/12/23 09:44:46;;;;;;;2.35;1.55;;;15.40;1.00;;;;;;5094134;28;20126;-37
2022/12/23 09:47:19;;;;;;;3.17;1.30;;;15.40;1.00;;;;;;5094763;28;20387;-36
2022/12/23 09:49:48;;;;;;;;;;;15.40;1.00;;;;;;5094929;28;20040;-36
2022/12/23 09:52:22;;;;;;;2.30;1.20;;;15.40;1.00;;;;;;5094191;28;19973;-36
2022/12/23 09:54:52;;;;;;;3.38;1.25;;;15.40;1.00;;;;;;5094059;28;20044;-37
2022/12/23 09:57:34;;;;;;;2.50;1.02;;;15.40;1.00;;;;;;5093914;28;20043;-37
2022/12/23 10:00:13;;;;;;;1.83;0.90;;;15.40;1.00;;;;;;5094213;28;20124;-37
2022/12/23 10:03:11;;;;;;;2.45;1.42;;;15.40;1.00;;;;;;5093944;28;20042;-37
2022/12/23 10:05:50;;;;;;;1.83;0.90;;;15.40;1.00;;;;;;5093969;28;20104;-37
2022/12/23 10:08:28;;;;;;;2.28;0.95;;;15.40;1.00;;;;;;5094219;28;20040;-37
2022/12/23 10:11:12;;;;;;;2.83;1.25;;;15.40;1.00;;;;;;5094185;28;20449;-37
2022/12/23 10:13:49;;;;;;;4.93;1.45;;;15.40;1.00;;;;;;5093527;28;20044;-37
2022/12/23 10:16:24;;;;;;;3.40;1.65;;;15.40;1.00;;;;;;5075803;28;20063;-36
2022/12/23 10:19:19;;;;;;;2.17;1.15;;;15.40;1.00;;;;;;5076477;28;20407;-37
2022/12/23 10:21:51;;;;;;;3.30;1.15;;;15.30;1.00;;;;;;5093942;28;20426;-36
2022/12/23 10:24:23;;;;;;;2.80;1.38;;;15.30;1.00;;;;;;5093377;28;20097;-36
2022/12/23 10:26:55;;;;;;;2.42;1.25;;;15.30;1.00;;;;;;5093815;28;20047;-36
2022/12/23 10:29:24;;;;;;;2.45;1.52;;;15.40;1.00;;;;;;5093722;28;20043;-36
2022/12/23 10:32:03;;;;;;;4.07;1.20;;;15.40;1.00;;;;;;5075579;28;20148;-37
2022/12/23 10:35:13;;;;;;;2.40;1.10;;;15.30;1.00;;;;;;5093197;28;20040;-37
2022/12/23 10:37:46;;;;;;;1.35;0.88;;;15.30;1.00;;;;;;5075445;28;20407;-37
2022/12/23 10:40:23;;;;;;;2.60;0.75;;;15.30;1.00;;;;;;5093620;28;20406;-37
2022/12/23 10:43:09;;;;;;;2.42;1.25;;;15.30;1.00;;;;;;5093237;28;20040;-37
2022/12/23 10:46:03;;;;;;;1.80;1.02;;;15.30;1.00;;;;;;5093261;28;20040;-37
2022/12/23 10:49:12;;;;;;;2.00;0.95;;;15.30;1.00;;;;;;5092556;28;20058;-37
2022/12/23 10:51:45;;;;;;;1.63;0.88;;;15.30;1.00;;;;;;5093208;28;20044;-37
2022/12/23 10:54:22;;;;;;;1.58;0.80;;;15.30;1.00;;;;;;5092818;28;20499;-38
2022/12/23 10:56:49;;;;;;;2.20;1.10;;;15.30;1.00;;;;;;5093170;28;20040;-36
2022/12/23 10:59:26;;;;;;;3.65;1.38;;;15.30;1.00;;;;;;5093076;28;20089;-36
2022/12/23 11:02:11;;;;;;;1.70;1.02;;;15.30;1.00;;;;;;5092874;28;20047;-36
2022/12/23 11:04:46;;;;;;;2.70;1.00;;;15.30;1.00;;;;;;5092786;28;20056;-36
2022/12/23 11:07:17;;;;;;;2.08;1.00;;;15.30;1.00;;;;;;5092968;28;20231;-36
2022/12/23 11:10:11;;;;;;;2.70;1.38;;;15.30;1.00;;;;;;5093010;28;20495;-37
2022/12/23 11:12:44;;;;;;;2.45;1.05;;;15.30;1.00;;;;;;5092875;28;20047;-36
2022/12/23 11:15:29;;;;;;;3.17;1.08;;;15.30;1.00;;;;;;5092806;28;20089;-37
2022/12/23 11:18:11;;;;;;;2.00;0.93;;;15.30;1.00;;;;;;5074507;28;20396;-37
2022/12/23 11:20:40;;;;;;;1.83;0.80;;;15.20;1.00;;;;;;5092888;28;20422;-37
2022/12/23 11:23:27;;;;;;;2.58;0.90;;;15.30;1.00;;;;;;5092464;28;20556;-37
2022/12/23 11:26:16;;;;;;;1.80;0.85;;;15.20;1.00;;;;;;5092769;28;20059;-37
2022/12/23 11:28:51;;;;;;;2.17;1.20;;;15.30;1.00;;;;;;5092380;28;20432;-37
2022/12/23 11:31:33;;;;;;;3.15;0.70;;;15.30;1.00;;;;;;5092689;28;20055;-38
2022/12/23 11:34:03;;;;;;;1.70;0.80;;;15.20;1.00;;;;;;5092308;28;20048;-37
2022/12/23 11:36:32;;;;;;;1.30;0.93;;;15.20;1.00;;;;;;5092403;28;20047;-37
2022/12/23 11:39:03;;;;;;;2.65;0.80;;;15.20;1.00;;;;;;5092607;28;20071;-37
2022/12/23 11:41:48;;;;;;;1.58;0.70;;;15.20;1.00;;;;;;5092426;28;20040;-37
2022/12/23 11:44:34;;;;;;;1.92;0.63;;;15.20;1.00;;;;;;5091898;28;20044;-37
2022/12/23 11:47:28;;;;;;;1.92;0.93;;;15.20;1.00;;;;;;5092393;28;20110;-37
2022/12/23 11:50:01;;;;;;;3.92;0.90;;;15.20;1.00;;;;;;5087005;22;20053;-38
2022/12/23 11:52:31;;;;;;;1.45;0.70;;;15.20;1.00;;;;;;5061907;28;20048;-38
2022/12/23 11:55:00;;;;;;;1.50;0.90;;;15.20;1.00;;;;;;5071028;28;20075;-38
2022/12/23 11:57:32;;;;;;;1.58;0.80;;;15.20;1.00;;;;;;5053990;28;20036;-44
2022/12/23 12:00:03;;;;;;;2.05;1.15;;;15.20;1.00;;;;;;5060749;28;20072;-39
2022/12/23 12:02:36;;;;;;;2.22;0.85;;;15.20;1.00;;;;;;5051879;28;20460;-39
2022/12/23 12:05:05;;;;;;;1.67;0.70;;;15.20;1.00;;;;;;5051873;28;20044;-38
2022/12/23 12:07:32;;;;;;;1.10;0.60;;;15.20;1.00;;;;;;5033936;28;20056;-39
2022/12/23 12:10:00;;;;;;;2.28;0.70;;;15.20;1.00;;;;;;5051802;28;20106;-39
2022/12/23 12:12:28;;;;;;;1.23;0.60;;;15.20;1.00;;;;;;5033797;28;20049;-38
2022/12/23 12:14:58;;;;;;;1.40;0.93;;;15.20;1.00;;;;;;5051518;28;20063;-39
2022/12/23 12:17:42;;;;;;;2.47;0.60;;;15.20;1.00;;;;;;5051622;28;20077;-39
2022/12/23 12:20:26;;;;;;;1.50;0.80;;;15.10;1.00;;;;;;5017564;28;20480;-38
2022/12/23 12:23:02;;;;;;;1.40;0.70;;;15.10;1.00;;;;;;5033700;28;20055;-38
2022/12/23 12:25:51;;;;;;;1.02;0.40;;;15.20;1.00;;;;;;5033806;28;20068;-39
2022/12/23 12:28:23;;;;;;;1.50;0.70;;;15.10;1.00;;;;;;5051615;28;20075;-39
2022/12/23 12:31:10;;;;;;;1.08;0.52;;;15.20;1.00;;;;;;5051457;28;20476;-38
2022/12/23 12:33:52;;;;;;;1.52;0.70;;;15.10;1.00;;;;;;5033733;28;20049;-39
2022/12/23 12:36:30;;;;;;;1.17;0.65;;;15.10;1.00;;;;;;5051425;28;20083;-39
2022/12/23 12:38:59;;;;;;;1.38;0.52;;;15.10;1.00;;;;;;5048361;28;20557;-39
2022/12/23 12:41:36;;;;;;;2.97;0.88;;;15.10;1.00;;;;;;5046277;28;20044;-39
2022/12/23 12:44:21;;;;;;;1.40;0.68;;;15.10;1.00;;;;;;5028336;28;20045;-39
2022/12/23 12:47:02;;;;;;;0.75;0.32;;;15.10;1.00;;;;;;5028568;28;20049;-39
2022/12/23 12:50:11;;;;;;;1.73;0.73;;;15.10;1.00;;;;;;5049488;28;20041;-38
2022/12/23 12:52:41;;;;;;;1.00;0.75;;;15.10;1.00;;;;;;5034655;28;20059;-38
2022/12/23 12:55:35;;;;;;;1.33;0.70;;;15.10;1.00;;;;;;5052434;28;20037;-38
2022/12/23 12:58:02;;;;;;;5.03;0.63;;;15.10;1.00;;;;;;5050302;28;20040;-38
2022/12/23 13:00:41;;;;;;;4.43;1.00;;;15.10;1.00;;;;;;5049383;28;20045;-38
2022/12/23 13:03:11;;;;;;;2.38;1.05;;;15.10;1.00;;;;;;5056039;28;20112;-39
2022/12/23 13:05:55;;;;;;;9.25;1.10;;;15.10;1.00;;;;;;5043349;28;20120;-39
2022/12/23 13:08:51;;;;;;;6.03;0.68;;;15.10;1.00;;;;;;5048452;28;20049;-39
2022/12/23 13:11:27;;;;;;;1.55;0.70;;;15.10;1.00;;;;;;5049153;28;20052;-38
2022/12/23 13:14:18;;;;;;;2.53;1.00;;;15.10;1.00;;;;;;5047278;28;20083;-39
2022/12/23 13:16:59;;;;;;;1.88;1.20;;;15.00;1.00;;;;;;5053602;28;20067;-38
2022/12/23 13:19:43;;;;;;;2.50;0.93;;;15.10;1.00;;;;;;5044130;28;20049;-39
2022/12/23 13:22:15;;;;;;;3.50;1.17;;;15.10;1.00;;;;;;5051126;28;20099;-38
2022/12/23 13:25:15;;;;;;;3.28;1.00;;;15.00;1.00;;;;;;5046053;28;20511;-38
2022/12/23 13:28:06;;;;;;;2.40;0.77;;;15.00;1.00;;;;;;5047245;28;20038;-38
2022/12/23 13:30:41;;;;;;;1.85;0.50;;;15.10;1.00;;;;;;5050609;28;20119;-38
2022/12/23 13:33:22;;;;;;;2.42;0.70;;;15.10;1.00;;;;;;5050787;28;20032;-39
2022/12/23 13:35:52;;;;;;;1.75;0.65;;;15.10;1.00;;;;;;5046742;28;20036;-39
2022/12/23 13:38:43;;;;;;;1.92;0.70;;;15.10;1.00;;;;;;5030383;28;20116;-38
2022/12/23 13:41:38;;;;;;;2.67;0.70;;;15.00;1.00;;;;;;5029261;28;20048;-38
2022/12/23 13:44:08;;;;;;;1.67;0.70;;;15.10;1.00;;;;;;5054270;28;20063;-39
2022/12/23 13:46:56;;;;;;;1.85;0.60;;;15.00;1.00;;;;;;5061181;28;20072;-38
2022/12/23 13:49:47;;;;;;;3.90;0.80;;;15.00;1.00;;;;;;5058829;28;20045;-38
2022/12/23 13:52:29;;;;;;;5.43;0.40;;;15.00;1.00;;;;;;5053565;28;20125;-39
2022/12/23 13:55:40;;;;;;;1.75;0.70;;;15.00;1.00;;;;;;5052109;28;20103;-39